Información del aeropuerto LFLB

Información de pista
Pista 18 Longitud 6628 ft Anchura 148 ft Elevación 769 ft Umbral 755 ft Rumbo 176
Pista 36 Longitud 6628 ft Anchura 148 ft Elevación 778 ft Umbral 460 ft Rumbo 356
Frecuencias del aeropuerto
Tipo APP Nombre CHAMBERY A Frecuencia 123.7 MHZ
Tipo ATIS Nombre CHAMBERY A Frecuencia 124.575 MHZ
Tipo TWR Nombre CHAMBERY T Frecuencia 118.3 MHZ
Radioayudas del aeropuerto
METAR y NOTAM del aeropuerto
ADDS - METARS form results

(2151 UTC 06 February 2023)
Data provider http://aviationweather.gov/metar/data/
 
METAR text: LFLB 062130Z AUTO 01010KT 9999 OVC043 05/M02 Q1028
Conditions at: LFLB (CHAMBERY/AIX BAI, FR) observed 2130 UTC 06 February 2023
Temperature: 5.0°C (41°F)
Dewpoint: -2.0°C (28°F) [RH = 60%]
Pressure (altimeter): 30.35 inches Hg (1028.0 mb)
Winds: from the N (10 degrees) at 12 MPH (10 knots; 5.1 m/s)
Visibility: 6 or more miles (10+ km)
Ceiling: 4300 feet AGL
Clouds: overcast cloud deck at 4300 feet AGL
Weather: no significant weather observed at this time

METAR text: LFLB 062100Z AUTO 01009KT 340V040 9999 OVC040 05/M02 Q1029
Conditions at: LFLB (CHAMBERY/AIX BAI, FR) observed 2100 UTC 06 February 2023
Temperature: 5.0°C (41°F)
Dewpoint: -2.0°C (28°F) [RH = 60%]
Pressure (altimeter): 30.38 inches Hg (1029.0 mb)
Winds: from the N (10 degrees) at 10 MPH (9 knots; 4.6 m/s)
Visibility: 6 or more miles (10+ km)
Ceiling: 4000 feet AGL
Clouds: overcast cloud deck at 4000 feet AGL
Weather: no significant weather observed at this time

Forecast for: LFLB (CHAMBERY/AIX BAI, FR)
Text: TAF LFLB 061400Z 0615/0715 36012KT 9999 OVC030
Forecast period: 1500 UTC 06 February 2023 to 0800 UTC 07 February 2023
Forecast type: FROM: standard forecast or significant change
Winds: from the N (360 degrees) at 14 MPH (12 knots; 6.2 m/s)
Visibility: 6 or more miles (10+ km)
Ceiling: 3000 feet AGL
Clouds: overcast cloud deck at 3000 feet AGL
Weather: no significant weather forecast for this period
Text: PROB30
Forecast period: 0200 to 0600 UTC 07 February 2023
Forecast type: TEMPORARY: The following changes expected for less than half the time period
Visibility: missing
Ceiling: unknown
Clouds: missing
Weather: -SN  (light snow)
Text: TEMPO 0702/0706 -SN
Forecast period: 0800 to 1500 UTC 07 February 2023
Forecast type: BECOMING: Conditions expected to become as follows by 1000 UTC 07 February 2023
Winds: from the N (360 degrees) at 14 MPH (12 knots; 6.2 m/s)
Visibility: 6 or more miles (10+ km)
Ceiling: unknown
Clouds: missing
Weather: NSW  (no significant weather)